Shoukeimaruno.3 — JI3587 — position and weather

sailwx.info

Track history (hours):
 
Tides and Currents Weather Stations Pressure Air Temp Water Temp Dewpoint Dewpoint Depression Visibility Wind Speed Wind Dir Waves Ship Positions

Shoukeimaruno.3

Last reported at 2015-Mar-28 11:14 UTC. Time now 2015-Apr-01 04:39 UTC.
Position N 35°55' E 140°56'.

Length 77 m; draft 4.2 m.

Type: Cargo ship. MMSI: 431300325.

Date/timePositionNaut miles runAvg speedWind from/ knotsBaromVisibWave heightAir tempDewpointWater temp
2015-Mar-28 11:14N 35°55' E 140°56'1412.5
2015-Mar-28 10:08N 35°42' E 140°54'812.6
2015-Mar-28 09:30N 35°35' E 140°49'2512.9
2015-Mar-28 07:33N 35°15' E 140°31'2013.7
2015-Mar-28 06:04N 35°01' E 140°13'814.1
2015-Mar-28 05:31N 34°57' E 140°05'1412.5
2015-Mar-28 04:24N 34°53' E 139°48'910.9
2015-Mar-28 03:33N 35°01' E 139°44'1212.2
2015-Mar-28 02:33N 35°13' E 139°46'1212.1
2015-Mar-28 01:33N 35°24' E 139°39'1 0.6
2015-Mar-28 00:33N 35°24' E 139°40'0 0.1
2015-Mar-27 23:33N 35°24' E 139°40'0 0.4
2015-Mar-27 22:33N 35°24' E 139°40'1 0.5
2015-Mar-27 21:33N 35°23' E 139°40'0 0.0
2015-Mar-27 20:33N 35°23' E 139°40'0 0.0
2015-Mar-27 19:33N 35°23' E 139°40'0 0.0
2015-Mar-27 18:33N 35°23' E 139°40'0 0.0
2015-Mar-27 17:33N 35°23' E 139°40'0 0.0
2015-Mar-27 16:33N 35°24' E 139°40'0 0.0
2015-Mar-27 15:33N 35°24' E 139°40'0 0.0
2015-Mar-27 14:33N 35°24' E 139°40'0 0.0
2015-Mar-27 13:33N 35°24' E 139°40'0 0.0
2015-Mar-27 12:33N 35°24' E 139°40'0 0.0
2015-Mar-27 11:33N 35°24' E 139°40'0 0.0
2015-Mar-27 10:33N 35°24' E 139°40'0 0.0
2015-Mar-27 09:33N 35°24' E 139°40'0 0.0
2015-Mar-27 08:33N 35°24' E 139°40'5 4.7
2015-Mar-27 07:33N 35°26' E 139°45'9 9.3
2015-Mar-27 06:33N 35°30' E 139°55'4 4.4
2015-Mar-27 05:33N 35°27' E 139°60'0 0.0
2015-Mar-27 04:33N 35°27' E 139°60'0 0.0
2015-Mar-27 03:33N 35°27' E 139°60'0 0.0
2015-Mar-27 02:33N 35°27' E 139°60'0 0.0
2015-Mar-27 01:33N 35°27' E 139°60'0 0.0
2015-Mar-27 00:33N 35°27' E 139°60'0 0.0
2015-Mar-26 23:33N 35°27' E 139°60'0 0.0
2015-Mar-26 22:33N 35°27' E 139°60'0 0.0
2015-Mar-26 21:33N 35°27' E 139°60'0 0.0
2015-Mar-26 20:33N 35°27' E 139°60'0 0.0
2015-Mar-26 19:33N 35°27' E 139°60'0 0.0
2015-Mar-26 18:33N 35°27' E 139°60'0 0.0
2015-Mar-26 17:33N 35°27' E 139°60'0 0.0
2015-Mar-26 16:34N 35°27' E 139°60'0 0.0
2015-Mar-26 15:33N 35°27' E 139°60'0 0.0
2015-Mar-26 14:33N 35°27' E 139°60'0 0.0
2015-Mar-26 13:33N 35°27' E 139°60'0 0.0
2015-Mar-26 12:33N 35°27' E 139°60'0 0.0
2015-Mar-26 11:33N 35°27' E 139°60'0 0.0
2015-Mar-26 10:33N 35°27' E 139°60'0 0.0
2015-Mar-26 09:33N 35°27' E 139°60'0 0.0
2015-Mar-26 08:33N 35°27' E 139°60'0 0.2
2015-Mar-26 07:33N 35°27' E 139°60'2 1.8
2015-Mar-26 06:33N 35°29' E 139°58'1 1.0
2015-Mar-26 05:33N 35°29' E 139°57'9 9.2
2015-Mar-26 04:32N 35°25' E 139°47'9 9.3
2015-Mar-26 03:33N 35°16' E 139°47'1010.2
2015-Mar-26 02:33N 35°06' E 139°46'15 7.2
2015-Mar-26 00:28N 34°54' E 139°57'1210.1
2015-Mar-25 23:18N 35°01' E 140°09'810.1
2015-Mar-25 22:32N 35°04' E 140°17'1511.1
2015-Mar-25 21:12N 35°15' E 140°30'1311.6
2015-Mar-25 20:06N 35°25' E 140°39'711.6
2015-Mar-25 19:31N 35°30' E 140°44'  
2015-Mar-22 22:32N 35°38' E 140°51'1010.3
2015-Mar-22 21:33N 35°30' E 140°44'1210.6
2015-Mar-22 20:28N 35°20' E 140°36'1010.6
2015-Mar-22 19:32N 35°12' E 140°30'1211.0
2015-Mar-22 18:29N 35°03' E 140°21'1111.3
2015-Mar-22 17:32N 34°58' E 140°09'1211.8
2015-Mar-22 16:33N 34°53' E 139°57'1010.2
2015-Mar-22 15:34N 34°55' E 139°45'1111.0
2015-Mar-22 14:33N 35°06' E 139°45'1111.0
2015-Mar-22 13:33N 35°17' E 139°45'9 8.6
2015-Mar-22 12:33N 35°24' E 139°37'0 0.0
2015-Mar-22 11:33N 35°24' E 139°37'0 0.0
2015-Mar-22 10:34N 35°24' E 139°37'0 0.0
2015-Mar-22 09:33N 35°24' E 139°37'0 0.3
2015-Mar-22 08:33N 35°24' E 139°38'5 5.3
2015-Mar-22 07:33N 35°28' E 139°42'0 0.0
2015-Mar-22 06:33N 35°28' E 139°42'0 0.0
2015-Mar-22 05:33N 35°28' E 139°42'0 0.0
2015-Mar-22 04:33N 35°28' E 139°42'0 0.0
2015-Mar-22 03:33N 35°28' E 139°42'2 1.5
2015-Mar-22 02:33N 35°27' E 139°43'9 8.7
2015-Mar-22 01:33N 35°18' E 139°44'9 9.4
2015-Mar-22 00:33N 35°09' E 139°46'1010.5
2015-Mar-21 23:33N 35°01' E 139°37'5 0.2
2015-Mar-20 14:33N 35°03' E 139°32'1211.7
2015-Mar-20 13:33N 35°09' E 139°44'1111.2
2015-Mar-20 12:33N 35°20' E 139°42'1211.7
2015-Mar-20 11:33N 35°29' E 139°51'6 5.5
2015-Mar-20 10:30N 35°29' E 139°59'2 0.2
2015-Mar-20 00:04N 35°29' E 139°56'611.1
2015-Mar-19 23:33N 35°27' E 139°50'1010.2
2015-Mar-19 22:33N 35°17' E 139°46'1110.8
2015-Mar-19 21:33N 35°06' E 139°45'1310.4
2015-Mar-19 20:21N 34°54' E 139°47'  
Track history (hours):
 
Tides and Currents Weather Stations Pressure Air Temp Water Temp Dewpoint Dewpoint Depression Visibility Wind Speed Wind Dir Waves Ship Positions

Shoukeimaruno.3

Last reported at 2015-Mar-28 11:14 UTC. Time now 2015-Apr-01 04:39 UTC.
Position N 35°55' E 140°56'.

Length 77 m; draft 4.2 m.

Type: Cargo ship. MMSI: 431300325.

Date/timePositionNaut miles runAvg speedWind from/ knotsBaromVisibWave heightAir tempDewpointWater temp
2015-Mar-28 11:14N 35°55' E 140°56'1412.5
2015-Mar-28 10:08N 35°42' E 140°54'812.6
2015-Mar-28 09:30N 35°35' E 140°49'2512.9
2015-Mar-28 07:33N 35°15' E 140°31'2013.7
2015-Mar-28 06:04N 35°01' E 140°13'814.1
2015-Mar-28 05:31N 34°57' E 140°05'1412.5
2015-Mar-28 04:24N 34°53' E 139°48'910.9
2015-Mar-28 03:33N 35°01' E 139°44'1212.2
2015-Mar-28 02:33N 35°13' E 139°46'1212.1
2015-Mar-28 01:33N 35°24' E 139°39'1 0.6
2015-Mar-28 00:33N 35°24' E 139°40'0 0.1
2015-Mar-27 23:33N 35°24' E 139°40'0 0.4
2015-Mar-27 22:33N 35°24' E 139°40'1 0.5
2015-Mar-27 21:33N 35°23' E 139°40'0 0.0
2015-Mar-27 20:33N 35°23' E 139°40'0 0.0
2015-Mar-27 19:33N 35°23' E 139°40'0 0.0
2015-Mar-27 18:33N 35°23' E 139°40'0 0.0
2015-Mar-27 17:33N 35°23' E 139°40'0 0.0
2015-Mar-27 16:33N 35°24' E 139°40'0 0.0
2015-Mar-27 15:33N 35°24' E 139°40'0 0.0
2015-Mar-27 14:33N 35°24' E 139°40'0 0.0
2015-Mar-27 13:33N 35°24' E 139°40'0 0.0
2015-Mar-27 12:33N 35°24' E 139°40'0 0.0
2015-Mar-27 11:33N 35°24' E 139°40'0 0.0
2015-Mar-27 10:33N 35°24' E 139°40'0 0.0
2015-Mar-27 09:33N 35°24' E 139°40'0 0.0
2015-Mar-27 08:33N 35°24' E 139°40'5 4.7
2015-Mar-27 07:33N 35°26' E 139°45'9 9.3
2015-Mar-27 06:33N 35°30' E 139°55'4 4.4
2015-Mar-27 05:33N 35°27' E 139°60'0 0.0
2015-Mar-27 04:33N 35°27' E 139°60'0 0.0
2015-Mar-27 03:33N 35°27' E 139°60'0 0.0
2015-Mar-27 02:33N 35°27' E 139°60'0 0.0
2015-Mar-27 01:33N 35°27' E 139°60'0 0.0
2015-Mar-27 00:33N 35°27' E 139°60'0 0.0
2015-Mar-26 23:33N 35°27' E 139°60'0 0.0
2015-Mar-26 22:33N 35°27' E 139°60'0 0.0
2015-Mar-26 21:33N 35°27' E 139°60'0 0.0
2015-Mar-26 20:33N 35°27' E 139°60'0 0.0
2015-Mar-26 19:33N 35°27' E 139°60'0 0.0
2015-Mar-26 18:33N 35°27' E 139°60'0 0.0
2015-Mar-26 17:33N 35°27' E 139°60'0 0.0
2015-Mar-26 16:34N 35°27' E 139°60'0 0.0
2015-Mar-26 15:33N 35°27' E 139°60'0 0.0
2015-Mar-26 14:33N 35°27' E 139°60'0 0.0
2015-Mar-26 13:33N 35°27' E 139°60'0 0.0
2015-Mar-26 12:33N 35°27' E 139°60'0 0.0
2015-Mar-26 11:33N 35°27' E 139°60'0 0.0
2015-Mar-26 10:33N 35°27' E 139°60'0 0.0
2015-Mar-26 09:33N 35°27' E 139°60'0 0.0
2015-Mar-26 08:33N 35°27' E 139°60'0 0.2
2015-Mar-26 07:33N 35°27' E 139°60'2 1.8
2015-Mar-26 06:33N 35°29' E 139°58'1 1.0
2015-Mar-26 05:33N 35°29' E 139°57'9 9.2
2015-Mar-26 04:32N 35°25' E 139°47'9 9.3
2015-Mar-26 03:33N 35°16' E 139°47'1010.2
2015-Mar-26 02:33N 35°06' E 139°46'15 7.2
2015-Mar-26 00:28N 34°54' E 139°57'1210.1
2015-Mar-25 23:18N 35°01' E 140°09'810.1
2015-Mar-25 22:32N 35°04' E 140°17'1511.1
2015-Mar-25 21:12N 35°15' E 140°30'1311.6
2015-Mar-25 20:06N 35°25' E 140°39'711.6
2015-Mar-25 19:31N 35°30' E 140°44'  
2015-Mar-22 22:32N 35°38' E 140°51'1010.3
2015-Mar-22 21:33N 35°30' E 140°44'1210.6
2015-Mar-22 20:28N 35°20' E 140°36'1010.6
2015-Mar-22 19:32N 35°12' E 140°30'1211.0
2015-Mar-22 18:29N 35°03' E 140°21'1111.3
2015-Mar-22 17:32N 34°58' E 140°09'1211.8
2015-Mar-22 16:33N 34°53' E 139°57'1010.2
2015-Mar-22 15:34N 34°55' E 139°45'1111.0
2015-Mar-22 14:33N 35°06' E 139°45'1111.0
2015-Mar-22 13:33N 35°17' E 139°45'9 8.6
2015-Mar-22 12:33N 35°24' E 139°37'0 0.0
2015-Mar-22 11:33N 35°24' E 139°37'0 0.0
2015-Mar-22 10:34N 35°24' E 139°37'0 0.0
2015-Mar-22 09:33N 35°24' E 139°37'0 0.3
2015-Mar-22 08:33N 35°24' E 139°38'5 5.3
2015-Mar-22 07:33N 35°28' E 139°42'0 0.0
2015-Mar-22 06:33N 35°28' E 139°42'0 0.0
2015-Mar-22 05:33N 35°28' E 139°42'0 0.0
2015-Mar-22 04:33N 35°28' E 139°42'0 0.0
2015-Mar-22 03:33N 35°28' E 139°42'2 1.5
2015-Mar-22 02:33N 35°27' E 139°43'9 8.7
2015-Mar-22 01:33N 35°18' E 139°44'9 9.4
2015-Mar-22 00:33N 35°09' E 139°46'1010.5
2015-Mar-21 23:33N 35°01' E 139°37'5 0.2
2015-Mar-20 14:33N 35°03' E 139°32'1211.7
2015-Mar-20 13:33N 35°09' E 139°44'1111.2
2015-Mar-20 12:33N 35°20' E 139°42'1211.7
2015-Mar-20 11:33N 35°29' E 139°51'6 5.5
2015-Mar-20 10:30N 35°29' E 139°59'2 0.2
2015-Mar-20 00:04N 35°29' E 139°56'611.1
2015-Mar-19 23:33N 35°27' E 139°50'1010.2
2015-Mar-19 22:33N 35°17' E 139°46'1110.8
2015-Mar-19 21:33N 35°06' E 139°45'1310.4
2015-Mar-19 20:21N 34°54' E 139°47'  

Dump ship's entire track history